Terminal Aerodrome Forecast
Issued by NWS Upton, NY

Home | Current Version | Previous Version | Text Only | Print | Product List | Glossary On
Versions: 1 2 3 4 5 6 7 8 9 10 11 12 13 14 15 16 17 18 19 20 21 22 23 24 25 26 27 28 29 30 31 32
000
FTUS41 KOKX 120800 AAA
TAFEWR
TAF AMD
KEWR 120830Z 1209/1312 VRB03KT P6SM FEW070 SCT250
     FM121500 19006KT P6SM FEW050 SCT250
     FM121800 18011KT P6SM FEW050 SCT250
     FM130200 21006KT P6SM FEW150 BKN250=

USA.gov is the U.S. government's official web portal to all federal, state and local government web resources and services.